sensor_id;sensor_type;location;lat;lon;timestamp;P1;durP1;ratioP1;P2;durP2;ratioP2
16705;SDS011;8469;60.136;15.180;2023-04-15T00:02:24;3.10;;;2.50;;
16705;SDS011;8469;60.136;15.180;2023-04-15T00:04:52;6.12;;;2.30;;
16705;SDS011;8469;60.136;15.180;2023-04-15T00:07:19;7.72;;;2.47;;
16705;SDS011;8469;60.136;15.180;2023-04-15T00:09:46;5.23;;;2.43;;
16705;SDS011;8469;60.136;15.180;2023-04-15T00:12:14;3.77;;;2.50;;
16705;SDS011;8469;60.136;15.180;2023-04-15T00:14:42;3.63;;;2.47;;
16705;SDS011;8469;60.136;15.180;2023-04-15T00:17:10;3.58;;;2.33;;
16705;SDS011;8469;60.136;15.180;2023-04-15T00:19:37;6.67;;;2.50;;
16705;SDS011;8469;60.136;15.180;2023-04-15T00:22:06;3.70;;;2.45;;
16705;SDS011;8469;60.136;15.180;2023-04-15T00:24:33;6.67;;;2.77;;
16705;SDS011;8469;60.136;15.180;2023-04-15T00:27:00;4.62;;;2.37;;
16705;SDS011;8469;60.136;15.180;2023-04-15T00:29:29;5.78;;;2.45;;
16705;SDS011;8469;60.136;15.180;2023-04-15T00:31:56;5.72;;;2.62;;
16705;SDS011;8469;60.136;15.180;2023-04-15T00:34:23;5.35;;;2.45;;
16705;SDS011;8469;60.136;15.180;2023-04-15T00:36:51;5.25;;;2.35;;
16705;SDS011;8469;60.136;15.180;2023-04-15T00:39:18;3.40;;;2.40;;
16705;SDS011;8469;60.136;15.180;2023-04-15T00:41:46;6.83;;;2.62;;
16705;SDS011;8469;60.136;15.180;2023-04-15T00:44:13;5.00;;;2.83;;
16705;SDS011;8469;60.136;15.180;2023-04-15T00:46:41;4.00;;;2.47;;
16705;SDS011;8469;60.136;15.180;2023-04-15T00:49:09;4.87;;;2.45;;
16705;SDS011;8469;60.136;15.180;2023-04-15T00:51:37;4.80;;;2.35;;
16705;SDS011;8469;60.136;15.180;2023-04-15T00:54:04;4.92;;;2.45;;
16705;SDS011;8469;60.136;15.180;2023-04-15T00:56:36;3.50;;;2.40;;
16705;SDS011;8469;60.136;15.180;2023-04-15T00:59:06;4.65;;;2.30;;
16705;SDS011;8469;60.136;15.180;2023-04-15T01:01:34;4.60;;;2.40;;
16705;SDS011;8469;60.136;15.180;2023-04-15T01:04:02;4.00;;;2.60;;
16705;SDS011;8469;60.136;15.180;2023-04-15T01:06:30;5.30;;;2.80;;
16705;SDS011;8469;60.136;15.180;2023-04-15T01:08:59;5.45;;;2.70;;
16705;SDS011;8469;60.136;15.180;2023-04-15T01:11:26;5.22;;;2.62;;
16705;SDS011;8469;60.136;15.180;2023-04-15T01:13:54;4.45;;;2.62;;
16705;SDS011;8469;60.136;15.180;2023-04-15T01:16:23;4.37;;;2.37;;
16705;SDS011;8469;60.136;15.180;2023-04-15T01:18:51;9.68;;;2.90;;
16705;SDS011;8469;60.136;15.180;2023-04-15T01:21:18;5.20;;;2.67;;
16705;SDS011;8469;60.136;15.180;2023-04-15T01:23:47;7.55;;;3.35;;
16705;SDS011;8469;60.136;15.180;2023-04-15T01:26:20;4.53;;;2.77;;
16705;SDS011;8469;60.136;15.180;2023-04-15T01:28:48;7.47;;;2.67;;
16705;SDS011;8469;60.136;15.180;2023-04-15T01:31:16;8.28;;;2.70;;
16705;SDS011;8469;60.136;15.180;2023-04-15T01:33:43;6.53;;;2.63;;
16705;SDS011;8469;60.136;15.180;2023-04-15T01:36:11;4.50;;;2.60;;
16705;SDS011;8469;60.136;15.180;2023-04-15T01:38:38;7.05;;;2.70;;
16705;SDS011;8469;60.136;15.180;2023-04-15T01:41:06;4.55;;;2.65;;
16705;SDS011;8469;60.136;15.180;2023-04-15T01:43:34;5.33;;;2.55;;
16705;SDS011;8469;60.136;15.180;2023-04-15T01:46:04;6.20;;;2.60;;
16705;SDS011;8469;60.136;15.180;2023-04-15T01:48:32;7.58;;;2.80;;
16705;SDS011;8469;60.136;15.180;2023-04-15T01:51:00;6.15;;;2.70;;
16705;SDS011;8469;60.136;15.180;2023-04-15T01:53:26;2.80;;;2.47;;
16705;SDS011;8469;60.136;15.180;2023-04-15T01:55:55;4.45;;;2.72;;
16705;SDS011;8469;60.136;15.180;2023-04-15T01:58:22;5.67;;;2.60;;
16705;SDS011;8469;60.136;15.180;2023-04-15T02:00:50;5.70;;;2.52;;
16705;SDS011;8469;60.136;15.180;2023-04-15T02:03:17;4.92;;;2.25;;
16705;SDS011;8469;60.136;15.180;2023-04-15T02:05:45;4.97;;;2.23;;
16705;SDS011;8469;60.136;15.180;2023-04-15T02:08:12;4.50;;;2.62;;
16705;SDS011;8469;60.136;15.180;2023-04-15T02:10:39;5.03;;;2.52;;
16705;SDS011;8469;60.136;15.180;2023-04-15T02:13:07;3.87;;;2.60;;
16705;SDS011;8469;60.136;15.180;2023-04-15T02:15:34;8.03;;;2.65;;
16705;SDS011;8469;60.136;15.180;2023-04-15T02:18:03;3.95;;;2.50;;
16705;SDS011;8469;60.136;15.180;2023-04-15T02:20:30;4.72;;;2.45;;
16705;SDS011;8469;60.136;15.180;2023-04-15T02:22:58;5.97;;;2.57;;
16705;SDS011;8469;60.136;15.180;2023-04-15T02:25:25;5.42;;;2.50;;
16705;SDS011;8469;60.136;15.180;2023-04-15T02:27:52;7.60;;;2.50;;
16705;SDS011;8469;60.136;15.180;2023-04-15T02:30:20;4.37;;;2.45;;
16705;SDS011;8469;60.136;15.180;2023-04-15T02:32:49;5.65;;;2.42;;
16705;SDS011;8469;60.136;15.180;2023-04-15T02:35:16;4.57;;;2.60;;
16705;SDS011;8469;60.136;15.180;2023-04-15T02:37:45;6.70;;;2.50;;
16705;SDS011;8469;60.136;15.180;2023-04-15T02:40:12;3.60;;;2.55;;
16705;SDS011;8469;60.136;15.180;2023-04-15T02:42:40;4.58;;;2.50;;
16705;SDS011;8469;60.136;15.180;2023-04-15T02:45:08;6.55;;;2.47;;
16705;SDS011;8469;60.136;15.180;2023-04-15T02:47:35;7.97;;;2.75;;
16705;SDS011;8469;60.136;15.180;2023-04-15T02:50:06;3.70;;;2.33;;
16705;SDS011;8469;60.136;15.180;2023-04-15T02:52:32;4.20;;;2.40;;
16705;SDS011;8469;60.136;15.180;2023-04-15T02:54:59;5.20;;;2.58;;
16705;SDS011;8469;60.136;15.180;2023-04-15T02:57:27;5.28;;;2.42;;
16705;SDS011;8469;60.136;15.180;2023-04-15T02:59:55;4.62;;;2.50;;
16705;SDS011;8469;60.136;15.180;2023-04-15T03:02:22;2.60;;;2.40;;
16705;SDS011;8469;60.136;15.180;2023-04-15T03:04:50;3.37;;;2.35;;
16705;SDS011;8469;60.136;15.180;2023-04-15T03:07:17;3.90;;;2.40;;
16705;SDS011;8469;60.136;15.180;2023-04-15T03:09:44;5.60;;;2.70;;
16705;SDS011;8469;60.136;15.180;2023-04-15T03:12:13;4.83;;;2.50;;
16705;SDS011;8469;60.136;15.180;2023-04-15T03:14:40;5.33;;;2.67;;
16705;SDS011;8469;60.136;15.180;2023-04-15T03:17:07;8.43;;;2.80;;
16705;SDS011;8469;60.136;15.180;2023-04-15T03:19:35;3.72;;;2.50;;
16705;SDS011;8469;60.136;15.180;2023-04-15T03:22:02;5.67;;;2.65;;
16705;SDS011;8469;60.136;15.180;2023-04-15T03:24:29;3.13;;;2.30;;
16705;SDS011;8469;60.136;15.180;2023-04-15T03:26:57;8.20;;;2.60;;
16705;SDS011;8469;60.136;15.180;2023-04-15T03:29:24;4.25;;;2.50;;
16705;SDS011;8469;60.136;15.180;2023-04-15T03:31:52;5.83;;;2.62;;
16705;SDS011;8469;60.136;15.180;2023-04-15T03:34:19;5.15;;;2.70;;
16705;SDS011;8469;60.136;15.180;2023-04-15T03:36:46;4.70;;;2.42;;
16705;SDS011;8469;60.136;15.180;2023-04-15T03:39:14;5.10;;;2.57;;
16705;SDS011;8469;60.136;15.180;2023-04-15T03:41:41;6.30;;;2.62;;
16705;SDS011;8469;60.136;15.180;2023-04-15T03:44:09;4.65;;;2.37;;
16705;SDS011;8469;60.136;15.180;2023-04-15T03:46:36;5.12;;;2.40;;
16705;SDS011;8469;60.136;15.180;2023-04-15T03:49:05;5.30;;;2.55;;
16705;SDS011;8469;60.136;15.180;2023-04-15T03:51:32;8.80;;;2.75;;
16705;SDS011;8469;60.136;15.180;2023-04-15T03:54:00;5.67;;;2.35;;
16705;SDS011;8469;60.136;15.180;2023-04-15T03:56:27;5.95;;;2.55;;
16705;SDS011;8469;60.136;15.180;2023-04-15T03:58:54;4.58;;;2.55;;
16705;SDS011;8469;60.136;15.180;2023-04-15T04:01:22;6.90;;;2.47;;
16705;SDS011;8469;60.136;15.180;2023-04-15T04:03:49;4.75;;;2.65;;
16705;SDS011;8469;60.136;15.180;2023-04-15T04:06:16;3.87;;;2.30;;
16705;SDS011;8469;60.136;15.180;2023-04-15T04:08:44;4.60;;;2.72;;
16705;SDS011;8469;60.136;15.180;2023-04-15T04:11:11;4.00;;;2.40;;
16705;SDS011;8469;60.136;15.180;2023-04-15T04:13:38;4.60;;;2.50;;
16705;SDS011;8469;60.136;15.180;2023-04-15T04:16:06;3.65;;;2.45;;
16705;SDS011;8469;60.136;15.180;2023-04-15T04:18:33;5.97;;;2.60;;
16705;SDS011;8469;60.136;15.180;2023-04-15T04:21:01;4.50;;;2.50;;
16705;SDS011;8469;60.136;15.180;2023-04-15T04:23:28;5.37;;;2.70;;
16705;SDS011;8469;60.136;15.180;2023-04-15T04:25:55;3.97;;;2.67;;
16705;SDS011;8469;60.136;15.180;2023-04-15T04:28:23;5.70;;;2.70;;
16705;SDS011;8469;60.136;15.180;2023-04-15T04:30:51;3.50;;;2.45;;
16705;SDS011;8469;60.136;15.180;2023-04-15T04:33:18;4.05;;;2.58;;
16705;SDS011;8469;60.136;15.180;2023-04-15T04:35:46;3.75;;;2.52;;
16705;SDS011;8469;60.136;15.180;2023-04-15T04:38:13;8.18;;;2.98;;
16705;SDS011;8469;60.136;15.180;2023-04-15T04:40:40;5.47;;;2.58;;
16705;SDS011;8469;60.136;15.180;2023-04-15T04:43:08;5.00;;;2.75;;
16705;SDS011;8469;60.136;15.180;2023-04-15T04:45:35;6.15;;;2.50;;
16705;SDS011;8469;60.136;15.180;2023-04-15T04:48:02;5.15;;;2.67;;
16705;SDS011;8469;60.136;15.180;2023-04-15T04:50:31;5.42;;;2.60;;
16705;SDS011;8469;60.136;15.180;2023-04-15T04:52:59;6.65;;;2.45;;
16705;SDS011;8469;60.136;15.180;2023-04-15T04:55:26;9.50;;;2.70;;
16705;SDS011;8469;60.136;15.180;2023-04-15T04:57:54;6.77;;;2.50;;
16705;SDS011;8469;60.136;15.180;2023-04-15T05:00:21;4.37;;;2.65;;
16705;SDS011;8469;60.136;15.180;2023-04-15T05:02:48;5.53;;;2.35;;
16705;SDS011;8469;60.136;15.180;2023-04-15T05:05:16;5.72;;;2.52;;
16705;SDS011;8469;60.136;15.180;2023-04-15T05:07:43;6.40;;;2.52;;
16705;SDS011;8469;60.136;15.180;2023-04-15T05:10:11;3.05;;;2.45;;
16705;SDS011;8469;60.136;15.180;2023-04-15T05:12:39;4.90;;;2.67;;
16705;SDS011;8469;60.136;15.180;2023-04-15T05:15:07;3.90;;;2.55;;
16705;SDS011;8469;60.136;15.180;2023-04-15T05:17:35;5.75;;;2.50;;
16705;SDS011;8469;60.136;15.180;2023-04-15T05:20:02;3.60;;;2.30;;
16705;SDS011;8469;60.136;15.180;2023-04-15T05:22:30;4.90;;;2.60;;
16705;SDS011;8469;60.136;15.180;2023-04-15T05:24:57;3.92;;;2.33;;
16705;SDS011;8469;60.136;15.180;2023-04-15T05:27:24;7.33;;;2.87;;
16705;SDS011;8469;60.136;15.180;2023-04-15T05:29:52;3.52;;;2.17;;
16705;SDS011;8469;60.136;15.180;2023-04-15T05:32:19;3.95;;;2.25;;
16705;SDS011;8469;60.136;15.180;2023-04-15T05:34:46;3.43;;;2.07;;
16705;SDS011;8469;60.136;15.180;2023-04-15T05:37:14;5.00;;;2.77;;
16705;SDS011;8469;60.136;15.180;2023-04-15T05:39:41;3.20;;;2.12;;
16705;SDS011;8469;60.136;15.180;2023-04-15T05:42:08;6.85;;;2.83;;
16705;SDS011;8469;60.136;15.180;2023-04-15T05:44:36;3.58;;;2.85;;
16705;SDS011;8469;60.136;15.180;2023-04-15T05:47:03;6.43;;;2.60;;
16705;SDS011;8469;60.136;15.180;2023-04-15T05:49:32;4.92;;;2.87;;
16705;SDS011;8469;60.136;15.180;2023-04-15T05:51:59;6.00;;;2.60;;
16705;SDS011;8469;60.136;15.180;2023-04-15T05:54:27;4.20;;;2.37;;
16705;SDS011;8469;60.136;15.180;2023-04-15T05:56:54;5.50;;;2.50;;
16705;SDS011;8469;60.136;15.180;2023-04-15T05:59:22;5.42;;;2.37;;
16705;SDS011;8469;60.136;15.180;2023-04-15T06:01:50;5.42;;;2.50;;
16705;SDS011;8469;60.136;15.180;2023-04-15T06:04:18;3.75;;;2.25;;
16705;SDS011;8469;60.136;15.180;2023-04-15T06:06:45;3.33;;;2.40;;
16705;SDS011;8469;60.136;15.180;2023-04-15T06:09:13;4.12;;;2.25;;
16705;SDS011;8469;60.136;15.180;2023-04-15T06:11:41;7.05;;;2.72;;
16705;SDS011;8469;60.136;15.180;2023-04-15T06:14:08;8.85;;;2.80;;
16705;SDS011;8469;60.136;15.180;2023-04-15T06:16:35;7.55;;;2.55;;
16705;SDS011;8469;60.136;15.180;2023-04-15T06:19:03;6.70;;;2.77;;
16705;SDS011;8469;60.136;15.180;2023-04-15T06:21:30;3.47;;;2.42;;
16705;SDS011;8469;60.136;15.180;2023-04-15T06:23:58;4.10;;;2.50;;
16705;SDS011;8469;60.136;15.180;2023-04-15T06:26:29;5.28;;;2.40;;
16705;SDS011;8469;60.136;15.180;2023-04-15T06:28:56;5.53;;;2.67;;
16705;SDS011;8469;60.136;15.180;2023-04-15T06:31:24;3.05;;;2.45;;
16705;SDS011;8469;60.136;15.180;2023-04-15T06:33:51;5.62;;;2.70;;
16705;SDS011;8469;60.136;15.180;2023-04-15T06:36:18;6.17;;;2.60;;
16705;SDS011;8469;60.136;15.180;2023-04-15T06:38:46;4.53;;;2.40;;
16705;SDS011;8469;60.136;15.180;2023-04-15T06:41:13;6.87;;;2.70;;
16705;SDS011;8469;60.136;15.180;2023-04-15T06:43:41;9.08;;;2.85;;
16705;SDS011;8469;60.136;15.180;2023-04-15T06:46:08;8.67;;;2.43;;
16705;SDS011;8469;60.136;15.180;2023-04-15T06:48:36;6.77;;;2.50;;
16705;SDS011;8469;60.136;15.180;2023-04-15T06:51:03;6.35;;;2.33;;
16705;SDS011;8469;60.136;15.180;2023-04-15T06:53:30;3.20;;;2.10;;
16705;SDS011;8469;60.136;15.180;2023-04-15T06:55:58;4.37;;;2.37;;
16705;SDS011;8469;60.136;15.180;2023-04-15T06:58:25;3.83;;;2.50;;
16705;SDS011;8469;60.136;15.180;2023-04-15T07:00:53;6.37;;;2.60;;
16705;SDS011;8469;60.136;15.180;2023-04-15T07:03:20;4.30;;;2.42;;
16705;SDS011;8469;60.136;15.180;2023-04-15T07:05:48;5.17;;;2.80;;
16705;SDS011;8469;60.136;15.180;2023-04-15T07:08:16;4.72;;;2.37;;
16705;SDS011;8469;60.136;15.180;2023-04-15T07:10:43;3.87;;;2.20;;
16705;SDS011;8469;60.136;15.180;2023-04-15T07:13:10;5.10;;;2.30;;
16705;SDS011;8469;60.136;15.180;2023-04-15T07:15:38;4.85;;;2.22;;
16705;SDS011;8469;60.136;15.180;2023-04-15T07:18:05;6.00;;;2.37;;
16705;SDS011;8469;60.136;15.180;2023-04-15T07:20:33;4.08;;;2.42;;
16705;SDS011;8469;60.136;15.180;2023-04-15T07:22:59;5.78;;;2.20;;
16705;SDS011;8469;60.136;15.180;2023-04-15T07:25:27;4.50;;;2.30;;
16705;SDS011;8469;60.136;15.180;2023-04-15T07:27:55;3.90;;;2.30;;
16705;SDS011;8469;60.136;15.180;2023-04-15T07:30:22;7.42;;;2.60;;
16705;SDS011;8469;60.136;15.180;2023-04-15T07:32:50;4.25;;;2.47;;
16705;SDS011;8469;60.136;15.180;2023-04-15T07:35:17;4.87;;;2.40;;
16705;SDS011;8469;60.136;15.180;2023-04-15T07:37:47;6.07;;;2.60;;
16705;SDS011;8469;60.136;15.180;2023-04-15T07:40:14;6.03;;;2.53;;
16705;SDS011;8469;60.136;15.180;2023-04-15T07:42:41;5.25;;;2.15;;
16705;SDS011;8469;60.136;15.180;2023-04-15T07:45:09;4.10;;;2.30;;
16705;SDS011;8469;60.136;15.180;2023-04-15T07:47:36;4.70;;;2.10;;
16705;SDS011;8469;60.136;15.180;2023-04-15T07:50:04;6.87;;;2.12;;
16705;SDS011;8469;60.136;15.180;2023-04-15T07:52:32;6.87;;;2.20;;
16705;SDS011;8469;60.136;15.180;2023-04-15T07:55:01;8.63;;;2.50;;
16705;SDS011;8469;60.136;15.180;2023-04-15T07:57:28;7.42;;;2.65;;
16705;SDS011;8469;60.136;15.180;2023-04-15T07:59:55;4.12;;;2.42;;
16705;SDS011;8469;60.136;15.180;2023-04-15T08:02:23;4.90;;;2.75;;
16705;SDS011;8469;60.136;15.180;2023-04-15T08:04:51;4.35;;;2.15;;
16705;SDS011;8469;60.136;15.180;2023-04-15T08:07:19;5.90;;;2.30;;
16705;SDS011;8469;60.136;15.180;2023-04-15T08:09:46;5.30;;;2.10;;
16705;SDS011;8469;60.136;15.180;2023-04-15T08:12:14;6.05;;;2.42;;
16705;SDS011;8469;60.136;15.180;2023-04-15T08:14:41;4.85;;;2.35;;
16705;SDS011;8469;60.136;15.180;2023-04-15T08:17:08;6.50;;;2.25;;
16705;SDS011;8469;60.136;15.180;2023-04-15T08:19:35;6.00;;;2.15;;
16705;SDS011;8469;60.136;15.180;2023-04-15T08:22:03;3.95;;;2.25;;
16705;SDS011;8469;60.136;15.180;2023-04-15T08:24:31;3.17;;;1.92;;
16705;SDS011;8469;60.136;15.180;2023-04-15T08:26:58;11.73;;;2.37;;
16705;SDS011;8469;60.136;15.180;2023-04-15T08:29:27;4.08;;;2.27;;
16705;SDS011;8469;60.136;15.180;2023-04-15T08:31:54;6.65;;;2.72;;
16705;SDS011;8469;60.136;15.180;2023-04-15T08:34:22;4.78;;;2.45;;
16705;SDS011;8469;60.136;15.180;2023-04-15T08:36:49;5.55;;;2.05;;
16705;SDS011;8469;60.136;15.180;2023-04-15T08:39:17;3.90;;;2.10;;
16705;SDS011;8469;60.136;15.180;2023-04-15T08:41:55;5.78;;;2.05;;
16705;SDS011;8469;60.136;15.180;2023-04-15T08:44:23;4.55;;;2.22;;
16705;SDS011;8469;60.136;15.180;2023-04-15T08:46:51;5.22;;;2.47;;
16705;SDS011;8469;60.136;15.180;2023-04-15T08:49:19;3.08;;;2.00;;
16705;SDS011;8469;60.136;15.180;2023-04-15T08:51:48;3.95;;;2.25;;
16705;SDS011;8469;60.136;15.180;2023-04-15T09:10:12;4.00;;;1.90;;
16705;SDS011;8469;60.136;15.180;2023-04-15T09:12:39;4.20;;;2.00;;
16705;SDS011;8469;60.136;15.180;2023-04-15T09:15:07;6.60;;;2.08;;
16705;SDS011;8469;60.136;15.180;2023-04-15T09:17:36;4.92;;;1.90;;
16705;SDS011;8469;60.136;15.180;2023-04-15T09:20:11;4.45;;;2.20;;
16705;SDS011;8469;60.136;15.180;2023-04-15T09:22:39;3.85;;;1.95;;
16705;SDS011;8469;60.136;15.180;2023-04-15T09:27:55;2.77;;;1.80;;
16705;SDS011;8469;60.136;15.180;2023-04-15T09:30:23;3.17;;;1.80;;
16705;SDS011;8469;60.136;15.180;2023-04-15T09:32:51;3.30;;;2.12;;
16705;SDS011;8469;60.136;15.180;2023-04-15T09:35:22;7.40;;;2.22;;
16705;SDS011;8469;60.136;15.180;2023-04-15T09:37:49;2.83;;;1.80;;
16705;SDS011;8469;60.136;15.180;2023-04-15T09:43:06;6.37;;;2.27;;
16705;SDS011;8469;60.136;15.180;2023-04-15T09:45:34;4.08;;;2.00;;
16705;SDS011;8469;60.136;15.180;2023-04-15T09:50:47;2.95;;;1.62;;
16705;SDS011;8469;60.136;15.180;2023-04-15T09:53:18;3.37;;;2.00;;
16705;SDS011;8469;60.136;15.180;2023-04-15T09:56:04;2.00;;;1.80;;
16705;SDS011;8469;60.136;15.180;2023-04-15T09:58:27;3.83;;;1.90;;
16705;SDS011;8469;60.136;15.180;2023-04-15T10:01:14;5.50;;;1.80;;
16705;SDS011;8469;60.136;15.180;2023-04-15T10:03:42;6.37;;;2.17;;
16705;SDS011;8469;60.136;15.180;2023-04-15T10:06:09;2.73;;;1.80;;
16705;SDS011;8469;60.136;15.180;2023-04-15T10:08:37;3.70;;;2.00;;
16705;SDS011;8469;60.136;15.180;2023-04-15T10:11:05;3.80;;;1.67;;
16705;SDS011;8469;60.136;15.180;2023-04-15T10:13:32;3.60;;;1.72;;
16705;SDS011;8469;60.136;15.180;2023-04-15T10:18:31;1.80;;;1.70;;
16705;SDS011;8469;60.136;15.180;2023-04-15T10:20:59;2.50;;;1.82;;
16705;SDS011;8469;60.136;15.180;2023-04-15T10:23:27;2.40;;;1.60;;
16705;SDS011;8469;60.136;15.180;2023-04-15T10:25:54;3.15;;;1.85;;
16705;SDS011;8469;60.136;15.180;2023-04-15T10:28:22;5.03;;;2.40;;
16705;SDS011;8469;60.136;15.180;2023-04-15T10:30:49;4.33;;;2.02;;
16705;SDS011;8469;60.136;15.180;2023-04-15T10:33:22;3.70;;;2.02;;
16705;SDS011;8469;60.136;15.180;2023-04-15T10:35:46;3.47;;;1.80;;
16705;SDS011;8469;60.136;15.180;2023-04-15T10:43:51;3.40;;;2.10;;
16705;SDS011;8469;60.136;15.180;2023-04-15T10:46:33;7.17;;;2.40;;
16705;SDS011;8469;60.136;15.180;2023-04-15T10:48:48;3.33;;;2.10;;
16705;SDS011;8469;60.136;15.180;2023-04-15T10:51:16;3.98;;;2.00;;
16705;SDS011;8469;60.136;15.180;2023-04-15T10:53:44;5.35;;;2.60;;
16705;SDS011;8469;60.136;15.180;2023-04-15T10:56:11;3.05;;;1.90;;
16705;SDS011;8469;60.136;15.180;2023-04-15T10:58:41;3.72;;;2.05;;
16705;SDS011;8469;60.136;15.180;2023-04-15T11:01:09;3.87;;;2.05;;
16705;SDS011;8469;60.136;15.180;2023-04-15T11:03:37;6.55;;;1.98;;
16705;SDS011;8469;60.136;15.180;2023-04-15T11:06:06;1.98;;;1.55;;
16705;SDS011;8469;60.136;15.180;2023-04-15T11:08:52;5.78;;;2.25;;
16705;SDS011;8469;60.136;15.180;2023-04-15T11:11:20;9.08;;;2.15;;
16705;SDS011;8469;60.136;15.180;2023-04-15T11:13:49;2.87;;;1.87;;
16705;SDS011;8469;60.136;15.180;2023-04-15T11:16:16;3.75;;;1.85;;
16705;SDS011;8469;60.136;15.180;2023-04-15T11:18:53;3.27;;;1.70;;
16705;SDS011;8469;60.136;15.180;2023-04-15T11:21:12;2.60;;;2.10;;
16705;SDS011;8469;60.136;15.180;2023-04-15T11:23:43;4.58;;;2.12;;
16705;SDS011;8469;60.136;15.180;2023-04-15T11:26:12;2.83;;;1.82;;
16705;SDS011;8469;60.136;15.180;2023-04-15T11:28:41;2.77;;;2.00;;
16705;SDS011;8469;60.136;15.180;2023-04-15T11:34:31;5.62;;;2.22;;
16705;SDS011;8469;60.136;15.180;2023-04-15T11:36:58;2.05;;;1.70;;
16705;SDS011;8469;60.136;15.180;2023-04-15T11:39:27;3.67;;;1.98;;
16705;SDS011;8469;60.136;15.180;2023-04-15T11:41:55;4.20;;;2.30;;
16705;SDS011;8469;60.136;15.180;2023-04-15T11:44:22;2.98;;;1.90;;
16705;SDS011;8469;60.136;15.180;2023-04-15T11:46:49;5.87;;;2.40;;
16705;SDS011;8469;60.136;15.180;2023-04-15T11:49:27;2.42;;;1.80;;
16705;SDS011;8469;60.136;15.180;2023-04-15T11:51:54;4.40;;;1.85;;
16705;SDS011;8469;60.136;15.180;2023-04-15T11:54:21;5.07;;;1.90;;
16705;SDS011;8469;60.136;15.180;2023-04-15T11:56:49;2.22;;;1.70;;
16705;SDS011;8469;60.136;15.180;2023-04-15T11:59:17;4.87;;;1.85;;
16705;SDS011;8469;60.136;15.180;2023-04-15T12:01:44;4.95;;;1.90;;
16705;SDS011;8469;60.136;15.180;2023-04-15T12:04:13;2.85;;;1.85;;
16705;SDS011;8469;60.136;15.180;2023-04-15T12:06:41;5.37;;;2.55;;
16705;SDS011;8469;60.136;15.180;2023-04-15T12:09:09;5.62;;;2.02;;
16705;SDS011;8469;60.136;15.180;2023-04-15T12:11:47;1.80;;;1.57;;
16705;SDS011;8469;60.136;15.180;2023-04-15T12:16:44;3.72;;;1.67;;
16705;SDS011;8469;60.136;15.180;2023-04-15T12:19:13;6.22;;;2.20;;
16705;SDS011;8469;60.136;15.180;2023-04-15T12:21:43;2.60;;;1.50;;
16705;SDS011;8469;60.136;15.180;2023-04-15T12:24:10;4.80;;;1.90;;
16705;SDS011;8469;60.136;15.180;2023-04-15T12:26:44;2.37;;;2.12;;
16705;SDS011;8469;60.136;15.180;2023-04-15T12:29:13;3.12;;;2.08;;
16705;SDS011;8469;60.136;15.180;2023-04-15T12:31:54;2.50;;;1.90;;
16705;SDS011;8469;60.136;15.180;2023-04-15T12:34:29;3.10;;;2.00;;
16705;SDS011;8469;60.136;15.180;2023-04-15T12:36:54;8.73;;;2.35;;
16705;SDS011;8469;60.136;15.180;2023-04-15T12:39:22;2.05;;;1.80;;
16705;SDS011;8469;60.136;15.180;2023-04-15T12:41:50;3.02;;;1.80;;
16705;SDS011;8469;60.136;15.180;2023-04-15T12:44:18;3.45;;;1.70;;
16705;SDS011;8469;60.136;15.180;2023-04-15T12:46:46;3.58;;;2.02;;
16705;SDS011;8469;60.136;15.180;2023-04-15T12:59:31;5.25;;;1.90;;
16705;SDS011;8469;60.136;15.180;2023-04-15T13:01:59;5.35;;;2.00;;
16705;SDS011;8469;60.136;15.180;2023-04-15T13:04:27;2.65;;;1.70;;
16705;SDS011;8469;60.136;15.180;2023-04-15T13:06:55;3.80;;;1.77;;
16705;SDS011;8469;60.136;15.180;2023-04-15T13:09:23;1.82;;;1.67;;
16705;SDS011;8469;60.136;15.180;2023-04-15T13:11:51;3.85;;;1.62;;
16705;SDS011;8469;60.136;15.180;2023-04-15T13:14:19;4.37;;;1.85;;
16705;SDS011;8469;60.136;15.180;2023-04-15T13:16:46;3.15;;;2.08;;
16705;SDS011;8469;60.136;15.180;2023-04-15T13:19:14;2.80;;;1.95;;
16705;SDS011;8469;60.136;15.180;2023-04-15T13:21:41;4.95;;;1.90;;
16705;SDS011;8469;60.136;15.180;2023-04-15T13:24:08;4.25;;;1.90;;
16705;SDS011;8469;60.136;15.180;2023-04-15T13:26:36;4.70;;;1.70;;
16705;SDS011;8469;60.136;15.180;2023-04-15T13:29:03;3.72;;;1.60;;
16705;SDS011;8469;60.136;15.180;2023-04-15T13:31:31;2.72;;;1.67;;
16705;SDS011;8469;60.136;15.180;2023-04-15T13:33:59;2.27;;;1.82;;
16705;SDS011;8469;60.136;15.180;2023-04-15T13:36:26;1.85;;;1.47;;
16705;SDS011;8469;60.136;15.180;2023-04-15T13:38:53;2.30;;;1.70;;
16705;SDS011;8469;60.136;15.180;2023-04-15T13:41:22;2.30;;;1.52;;
16705;SDS011;8469;60.136;15.180;2023-04-15T13:43:49;5.37;;;1.87;;
16705;SDS011;8469;60.136;15.180;2023-04-15T13:46:16;2.60;;;1.82;;
16705;SDS011;8469;60.136;15.180;2023-04-15T13:48:44;3.15;;;1.70;;
16705;SDS011;8469;60.136;15.180;2023-04-15T13:51:11;2.75;;;1.90;;
16705;SDS011;8469;60.136;15.180;2023-04-15T13:53:39;2.62;;;1.90;;
16705;SDS011;8469;60.136;15.180;2023-04-15T13:56:06;5.17;;;1.80;;
16705;SDS011;8469;60.136;15.180;2023-04-15T13:58:34;2.40;;;1.62;;
16705;SDS011;8469;60.136;15.180;2023-04-15T14:01:02;2.00;;;1.60;;
16705;SDS011;8469;60.136;15.180;2023-04-15T14:03:29;1.80;;;1.70;;
16705;SDS011;8469;60.136;15.180;2023-04-15T14:05:57;3.40;;;2.08;;
16705;SDS011;8469;60.136;15.180;2023-04-15T14:08:24;3.70;;;1.80;;
16705;SDS011;8469;60.136;15.180;2023-04-15T14:10:52;2.83;;;1.77;;
16705;SDS011;8469;60.136;15.180;2023-04-15T14:13:19;8.20;;;2.25;;
16705;SDS011;8469;60.136;15.180;2023-04-15T14:15:46;2.55;;;1.87;;
16705;SDS011;8469;60.136;15.180;2023-04-15T14:18:14;1.82;;;1.45;;
16705;SDS011;8469;60.136;15.180;2023-04-15T14:20:41;5.03;;;1.72;;
16705;SDS011;8469;60.136;15.180;2023-04-15T14:23:08;2.92;;;1.75;;
16705;SDS011;8469;60.136;15.180;2023-04-15T14:25:36;4.97;;;1.85;;
16705;SDS011;8469;60.136;15.180;2023-04-15T14:28:04;2.10;;;1.65;;
16705;SDS011;8469;60.136;15.180;2023-04-15T14:30:32;3.08;;;2.00;;
16705;SDS011;8469;60.136;15.180;2023-04-15T14:32:59;1.82;;;1.57;;
16705;SDS011;8469;60.136;15.180;2023-04-15T14:35:27;2.35;;;1.92;;
16705;SDS011;8469;60.136;15.180;2023-04-15T14:37:54;1.95;;;1.72;;
16705;SDS011;8469;60.136;15.180;2023-04-15T14:40:22;2.00;;;1.80;;
16705;SDS011;8469;60.136;15.180;2023-04-15T14:42:49;5.55;;;1.90;;
16705;SDS011;8469;60.136;15.180;2023-04-15T14:45:16;3.10;;;1.87;;
16705;SDS011;8469;60.136;15.180;2023-04-15T14:47:44;2.15;;;1.75;;
16705;SDS011;8469;60.136;15.180;2023-04-15T14:50:11;1.70;;;1.60;;
16705;SDS011;8469;60.136;15.180;2023-04-15T14:52:38;3.30;;;1.67;;
16705;SDS011;8469;60.136;15.180;2023-04-15T14:55:06;1.98;;;1.52;;
16705;SDS011;8469;60.136;15.180;2023-04-15T14:57:40;3.83;;;2.17;;
16705;SDS011;8469;60.136;15.180;2023-04-15T15:00:04;3.03;;;1.77;;
16705;SDS011;8469;60.136;15.180;2023-04-15T15:02:33;3.08;;;1.60;;
16705;SDS011;8469;60.136;15.180;2023-04-15T15:05:01;2.60;;;1.70;;
16705;SDS011;8469;60.136;15.180;2023-04-15T15:07:28;2.27;;;1.80;;
16705;SDS011;8469;60.136;15.180;2023-04-15T15:09:56;5.23;;;1.70;;
16705;SDS011;8469;60.136;15.180;2023-04-15T15:12:24;3.22;;;1.77;;
16705;SDS011;8469;60.136;15.180;2023-04-15T15:14:51;3.93;;;1.80;;
16705;SDS011;8469;60.136;15.180;2023-04-15T15:17:18;1.75;;;1.60;;
16705;SDS011;8469;60.136;15.180;2023-04-15T15:19:46;4.55;;;1.67;;
16705;SDS011;8469;60.136;15.180;2023-04-15T15:22:13;3.35;;;1.87;;
16705;SDS011;8469;60.136;15.180;2023-04-15T15:24:41;3.77;;;1.70;;
16705;SDS011;8469;60.136;15.180;2023-04-15T15:27:08;3.20;;;1.75;;
16705;SDS011;8469;60.136;15.180;2023-04-15T15:29:36;3.63;;;2.00;;
16705;SDS011;8469;60.136;15.180;2023-04-15T15:32:03;3.30;;;1.80;;
16705;SDS011;8469;60.136;15.180;2023-04-15T15:34:31;4.25;;;1.62;;
16705;SDS011;8469;60.136;15.180;2023-04-15T15:36:59;2.10;;;1.62;;
16705;SDS011;8469;60.136;15.180;2023-04-15T15:39:27;2.37;;;1.75;;
16705;SDS011;8469;60.136;15.180;2023-04-15T15:41:54;2.05;;;1.50;;